Time;durP1;ratioP1;P1;durP2;ratioP2;P2;SDS_P1;SDS_P2;PMS_P1;PMS_P2;Temp;Humidity;BMP_temperature;BMP_pressure;BME280_temperature;BME280_humidity;BME280_pressure;Samples;Min_cycle;Max_cycle;Signal;HPM_P1;HPM_P2
2023/03/08 00:02:17;;;;;;;5.50;1.92;;;11.50;99.90;;;;;;5074540;28;20043;-52
2023/03/08 00:04:43;;;;;;;3.92;2.00;;;11.50;99.90;;;;;;5093029;28;20036;-52
2023/03/08 00:07:09;;;;;;;3.40;1.80;;;11.50;99.90;;;;;;5093314;28;20107;-52
2023/03/08 00:09:36;;;;;;;3.03;1.70;;;11.60;99.90;;;;;;5093091;28;20471;-53
2023/03/08 00:12:02;;;;;;;6.30;3.50;;;11.60;99.90;;;;;;5093080;28;20097;-53
2023/03/08 00:14:28;;;;;;;6.65;2.45;;;11.60;99.90;;;;;;5093178;28;20421;-52
2023/03/08 00:16:53;;;;;;;7.88;4.00;;;11.60;99.90;;;;;;5091877;28;20479;-53
2023/03/08 00:19:19;;;;;;;14.20;6.65;;;11.60;99.90;;;;;;5093066;28;20032;-52
2023/03/08 00:21:48;;;;;;;16.98;8.00;;;11.60;99.90;;;;;;5092634;28;20080;-52
2023/03/08 00:24:15;;;;;;;20.70;10.25;;;11.70;99.90;;;;;;5093175;28;20478;-52
2023/03/08 00:26:42;;;;;;;21.50;11.50;;;11.60;99.70;;;;;;5093060;28;20164;-52
2023/03/08 00:29:07;;;;;;;9.48;5.32;;;11.70;99.30;;;;;;5093195;28;20024;-52
2023/03/08 00:31:33;;;;;;;9.00;5.18;;;11.70;98.80;;;;;;5092817;28;20036;-53
2023/03/08 00:33:59;;;;;;;8.75;5.55;;;11.80;98.80;;;;;;5100005;28;20043;-52
2023/03/08 00:36:24;;;;;;;12.27;7.15;;;11.80;99.20;;;;;;5060957;28;20074;-53
2023/03/08 00:38:51;;;;;;;13.40;7.40;;;11.70;98.90;;;;;;5113281;28;20806;-52
2023/03/08 00:41:17;;;;;;;7.55;3.40;;;11.80;98.90;;;;;;5113196;28;20059;-52
2023/03/08 00:43:43;;;;;;;7.95;4.97;;;11.80;98.70;;;;;;5112881;28;20024;-53
2023/03/08 00:46:09;;;;;;;7.78;4.63;;;11.80;98.80;;;;;;5113138;28;20501;-52
2023/03/08 00:48:35;;;;;;;8.52;5.22;;;11.80;98.80;;;;;;5112874;28;20085;-53
2023/03/08 00:51:03;;;;;;;7.28;3.90;;;11.70;98.90;;;;;;5112859;28;20044;-52
2023/03/08 00:53:29;;;;;;;6.45;3.70;;;11.20;98.50;;;;;;5060466;28;20046;-53
2023/03/08 00:55:57;;;;;;;7.43;3.80;;;11.70;98.50;;;;;;5113195;28;20035;-52
2023/03/08 00:58:25;;;;;;;6.80;3.17;;;9.80;98.00;;;;;;5113225;28;20497;-52
2023/03/08 01:00:51;;;;;;;5.15;3.42;;;11.60;98.70;;;;;;5112648;28;20035;-53
2023/03/08 01:03:17;;;;;;;3.70;2.38;;;11.40;99.30;;;;;;5115333;28;20039;-52
2023/03/08 01:05:48;;;;;;;6.63;3.38;;;11.20;99.90;;;;;;5116466;28;20035;-52
2023/03/08 01:08:15;;;;;;;5.25;3.35;;;11.00;99.90;;;;;;5116826;28;20031;-52
2023/03/08 01:10:47;;;;;;;5.15;4.15;;;11.00;99.90;;;;;;5116485;28;20027;-52
2023/03/08 01:13:13;;;;;;;7.50;3.88;;;11.00;99.90;;;;;;5116832;28;20034;-52
2023/03/08 01:15:38;;;;;;;8.55;3.10;;;11.10;99.80;;;;;;5116237;28;20027;-53
2023/03/08 01:18:05;;;;;;;7.68;3.95;;;11.20;99.60;;;;;;5116650;28;20062;-52
2023/03/08 01:20:32;;;;;;;6.70;4.03;;;11.30;99.30;;;;;;5116178;28;20051;-53
2023/03/08 01:22:58;;;;;;;8.00;3.92;;;11.20;99.20;;;;;;5116264;28;20034;-52
2023/03/08 01:25:23;;;;;;;7.70;4.22;;;11.50;99.00;;;;;;5116594;28;20110;-52
2023/03/08 01:27:49;;;;;;;7.40;4.30;;;11.60;98.90;;;;;;5116352;28;20447;-53
2023/03/08 01:30:16;;;;;;;6.22;3.80;;;12.90;99.20;;;;;;5116005;28;20050;-52
2023/03/08 01:32:41;;;;;;;9.20;5.32;;;11.60;98.80;;;;;;5115733;28;20420;-53
2023/03/08 01:35:08;;;;;;;10.63;5.97;;;11.60;98.50;;;;;;5115739;28;20097;-52
2023/03/08 01:37:34;;;;;;;12.18;6.95;;;11.60;98.60;;;;;;5116357;28;20036;-53
2023/03/08 01:40:00;;;;;;;10.52;5.47;;;11.60;98.50;;;;;;5115923;28;20039;-52
2023/03/08 01:42:27;;;;;;;8.50;4.45;;;11.60;98.20;;;;;;5115763;28;20030;-52
2023/03/08 01:44:54;;;;;;;6.75;4.07;;;11.60;98.20;;;;;;5115642;28;20063;-52
2023/03/08 01:47:25;;;;;;;5.97;3.80;;;11.60;98.20;;;;;;5046722;28;20128;-52
2023/03/08 01:49:55;;;;;;;7.85;3.42;;;11.60;98.20;;;;;;5115825;28;20031;-52
2023/03/08 01:52:45;;;;;;;6.88;3.88;;;11.60;98.00;;;;;;5115582;28;20490;-52
2023/03/08 01:55:12;;;;;;;6.97;3.78;;;11.60;98.10;;;;;;5115436;28;20035;-52
2023/03/08 01:57:46;;;;;;;7.90;5.03;;;11.60;98.00;;;;;;5115827;28;20035;-53
2023/03/08 02:00:16;;;;;;;6.15;4.07;;;11.60;98.10;;;;;;5115550;28;20028;-52
2023/03/08 02:02:59;;;;;;;7.32;4.05;;;11.60;97.90;;;;;;5115288;28;20035;-53
2023/03/08 02:05:26;;;;;;;5.57;3.60;;;11.60;97.60;;;;;;5115312;28;20467;-52
2023/03/08 02:07:52;;;;;;;5.93;3.42;;;11.70;97.40;;;;;;5115311;28;20019;-52
2023/03/08 02:10:19;;;;;;;6.10;4.40;;;11.70;97.70;;;;;;5115869;28;20164;-52
2023/03/08 02:12:45;;;;;;;6.70;3.70;;;11.80;97.50;;;;;;5062467;28;20028;-52
2023/03/08 02:15:13;;;;;;;7.30;3.33;;;11.70;97.50;;;;;;5115440;28;20030;-52
2023/03/08 02:17:40;;;;;;;7.53;3.22;;;11.60;97.60;;;;;;5052211;28;20039;-53
2023/03/08 02:20:09;;;;;;;3.60;2.65;;;11.50;97.80;;;;;;5052473;28;20072;-52
2023/03/08 02:22:39;;;;;;;5.45;2.78;;;11.40;98.30;;;;;;5052265;28;20038;-52
2023/03/08 02:25:12;;;;;;;6.00;3.08;;;11.30;99.10;;;;;;5052414;28;20044;-52
2023/03/08 02:27:38;;;;;;;3.60;2.58;;;;;;;;;;5052256;28;20033;-53
2023/03/08 02:30:04;;;;;;;5.50;2.70;;;;;;;;;;5052246;28;20443;-52
2023/03/08 02:32:30;;;;;;;3.13;2.45;;;10.90;99.60;;;;;;5052195;28;20048;-52
2023/03/08 02:34:56;;;;;;;5.30;3.22;;;10.90;99.90;;;;;;5051624;28;20113;-52
2023/03/08 02:37:22;;;;;;;5.28;2.65;;;10.70;99.90;;;;;;5052048;28;20052;-52
2023/03/08 02:39:48;;;;;;;5.45;3.08;;;;;;;;;;5051850;28;20479;-53
2023/03/08 02:42:14;;;;;;;4.07;2.55;;;10.70;99.90;;;;;;5051667;28;20041;-52
2023/03/08 02:44:40;;;;;;;3.35;2.60;;;10.60;99.90;;;;;;5051969;28;20108;-52
2023/03/08 02:47:06;;;;;;;5.60;3.15;;;10.60;99.90;;;;;;5051924;28;20472;-52
2023/03/08 02:49:31;;;;;;;5.20;3.15;;;10.60;99.90;;;;;;5010304;28;20034;-52
2023/03/08 02:51:58;;;;;;;4.80;2.70;;;10.60;99.90;;;;;;5114539;28;20526;-52
2023/03/08 02:54:23;;;;;;;4.80;2.90;;;10.60;99.90;;;;;;5062028;28;20042;-52
2023/03/08 02:56:49;;;;;;;5.22;2.70;;;10.60;99.90;;;;;;5061966;28;20391;-53
2023/03/08 02:59:17;;;;;;;5.00;2.67;;;10.60;99.90;;;;;;5114530;28;20023;-52
2023/03/08 03:01:43;;;;;;;4.13;2.75;;;10.60;99.90;;;;;;5114416;28;20050;-52
2023/03/08 03:04:09;;;;;;;5.25;2.80;;;10.60;99.90;;;;;;5114412;28;20454;-52
2023/03/08 03:06:34;;;;;;;4.65;2.95;;;10.60;99.90;;;;;;5114377;28;20031;-52
2023/03/08 03:09:00;;;;;;;25.83;14.20;;;10.80;99.90;;;;;;5114040;28;20040;-52
2023/03/08 03:11:26;;;;;;;31.85;19.33;;;10.90;99.90;;;;;;5114331;28;20107;-52
2023/03/08 03:13:57;;;;;;;106.82;59.95;;;11.00;99.90;;;;;;5114166;28;20118;-52
2023/03/08 03:16:23;;;;;;;26.05;16.52;;;10.90;99.90;;;;;;5354359;22;20451;-53
2023/03/08 03:18:50;;;;;;;21.20;13.15;;;10.90;99.90;;;;;;5095324;28;20063;-53
2023/03/08 03:21:16;;;;;;;22.60;13.27;;;11.00;99.90;;;;;;5114083;28;20157;-53
2023/03/08 03:23:41;;;;;;;8.82;3.35;;;11.00;99.90;;;;;;5114020;28;20028;-53
2023/03/08 03:26:12;;;;;;;5.35;2.72;;;10.90;99.90;;;;;;5113562;28;20020;-52
2023/03/08 03:28:37;;;;;;;3.90;2.85;;;10.50;99.90;;;;;;5114360;28;20035;-53
2023/03/08 03:31:12;;;;;;;3.88;2.53;;;10.40;99.90;;;;;;5113803;28;20039;-52
2023/03/08 03:33:38;;;;;;;5.93;2.58;;;10.40;99.90;;;;;;5113975;28;20407;-53
2023/03/08 03:36:05;;;;;;;6.55;3.58;;;10.40;99.90;;;;;;5113770;28;20042;-52
2023/03/08 03:38:31;;;;;;;3.38;2.70;;;;;;;;;;5113847;28;20068;-52
2023/03/08 03:41:05;;;;;;;5.65;2.88;;;;;;;;;;5113703;28;20034;-52
2023/03/08 03:43:31;;;;;;;3.88;2.40;;;;;;;;;;5113669;28;20027;-53
2023/03/08 03:45:58;;;;;;;4.35;2.05;;;;;;;;;;5113545;28;20036;-52
2023/03/08 03:48:24;;;;;;;4.28;2.03;;;;;;;;;;5077795;28;20035;-52
2023/03/08 03:50:55;;;;;;;5.65;2.35;;;;;;;;;;5113883;28;20028;-52
2023/03/08 03:53:21;;;;;;;6.10;2.60;;;;;;;;;;5095055;28;20440;-53
2023/03/08 03:55:47;;;;;;;4.03;2.42;;;;;;;;;;5113554;28;20462;-52
2023/03/08 03:58:13;;;;;;;3.78;1.70;;;;;;;;;;5113658;28;20067;-52
2023/03/08 04:00:39;;;;;;;4.13;1.73;;;;;;;;;;5113665;28;20031;-53
2023/03/08 04:03:04;;;;;;;4.80;2.00;;;10.80;99.90;;;;;;5113624;28;20028;-52
2023/03/08 04:05:30;;;;;;;4.15;2.30;;;10.90;98.70;;;;;;5113344;28;20024;-52
2023/03/08 04:07:56;;;;;;;3.40;2.20;;;10.90;98.40;;;;;;5113528;28;20028;-52
2023/03/08 04:10:21;;;;;;;3.28;2.10;;;11.00;98.30;;;;;;5113343;28;20026;-52
2023/03/08 04:12:51;;;;;;;7.60;2.90;;;11.10;98.20;;;;;;5113671;28;20365;-53
2023/03/08 04:15:17;;;;;;;3.63;1.83;;;11.20;97.80;;;;;;5113117;28;20513;-52
2023/03/08 04:17:43;;;;;;;3.17;1.83;;;11.20;97.90;;;;;;5113407;28;20028;-52
2023/03/08 04:20:09;;;;;;;2.25;1.90;;;11.20;98.10;;;;;;5113425;28;20027;-52
2023/03/08 04:22:35;;;;;;;3.70;1.83;;;11.30;98.10;;;;;;5113933;28;20474;-53
2023/03/08 04:25:01;;;;;;;3.13;1.92;;;11.30;99.90;;;;;;5113289;28;20050;-52
2023/03/08 04:27:26;;;;;;;4.03;2.20;;;11.70;99.90;;;;;;5113308;28;20037;-52
2023/03/08 04:29:53;;;;;;;4.82;1.77;;;11.30;99.90;;;;;;5113293;28;20028;-52
2023/03/08 04:32:19;;;;;;;5.70;2.25;;;;;;;;;;5113596;28;20031;-52
2023/03/08 04:34:45;;;;;;;5.40;2.72;;;;;;;;;;5113391;28;20031;-52
2023/03/08 04:37:11;;;;;;;6.57;2.85;;;;;;;;;;5113932;28;20027;-52
2023/03/08 04:39:37;;;;;;;4.38;3.00;;;;;;;;;;5116897;28;20484;-53
2023/03/08 04:42:04;;;;;;;6.95;3.78;;;;;;;;;;5117284;28;20020;-52
2023/03/08 04:44:29;;;;;;;5.78;2.85;;;11.50;99.90;;;;;;5117284;28;20034;-53
2023/03/08 04:46:55;;;;;;;6.43;2.50;;;11.40;98.30;;;;;;5116809;28;20103;-52
2023/03/08 04:49:22;;;;;;;6.97;3.70;;;11.50;98.30;;;;;;5081211;28;20089;-52
2023/03/08 04:51:47;;;;;;;5.38;2.22;;;11.20;98.20;;;;;;5081142;28;20043;-52
2023/03/08 04:54:13;;;;;;;4.10;2.00;;;11.10;98.30;;;;;;5117194;28;20019;-52
2023/03/08 04:56:39;;;;;;;7.00;3.28;;;11.00;98.30;;;;;;5117117;28;20055;-53
2023/03/08 04:59:04;;;;;;;4.90;2.28;;;10.90;98.50;;;;;;5116929;28;20475;-52
2023/03/08 05:01:30;;;;;;;5.97;2.28;;;10.90;98.60;;;;;;5116590;28;20510;-52
2023/03/08 05:03:56;;;;;;;3.50;2.30;;;11.10;98.60;;;;;;5116721;28;20405;-52
2023/03/08 05:06:24;;;;;;;5.22;2.67;;;11.20;98.40;;;;;;5116871;28;20103;-52
2023/03/08 05:08:49;;;;;;;8.95;2.90;;;11.10;98.60;;;;;;5113394;28;20035;-53
2023/03/08 05:11:21;;;;;;;5.45;2.35;;;11.00;99.00;;;;;;5116923;28;20085;-53
2023/03/08 05:13:47;;;;;;;12.13;7.53;;;10.90;99.20;;;;;;5117064;28;20034;-53
2023/03/08 05:16:14;;;;;;;5.47;3.47;;;10.80;99.10;;;;;;5118328;28;20043;-53
2023/03/08 05:18:39;;;;;;;4.72;2.30;;;10.80;99.30;;;;;;5117917;28;20027;-54
2023/03/08 05:21:14;;;;;;;3.97;2.13;;;10.70;99.50;;;;;;5118387;28;20028;-52
2023/03/08 05:23:40;;;;;;;3.92;2.33;;;10.60;99.80;;;;;;5117870;28;20023;-53
2023/03/08 05:26:07;;;;;;;2.95;2.03;;;10.60;99.90;;;;;;5117544;28;20429;-53
2023/03/08 05:28:35;;;;;;;5.07;2.50;;;10.50;99.90;;;;;;5118184;28;20032;-52
2023/03/08 05:31:16;;;;;;;4.72;2.40;;;10.60;99.90;;;;;;5117556;28;20043;-53
2023/03/08 05:33:45;;;;;;;3.40;2.88;;;10.70;99.90;;;;;;5117793;28;20023;-54
2023/03/08 05:36:12;;;;;;;8.00;4.20;;;10.70;99.90;;;;;;5114207;28;20032;-56
2023/03/08 05:38:38;;;;;;;9.38;5.55;;;10.80;99.90;;;;;;5107322;28;20458;-53
2023/03/08 05:41:06;;;;;;;7.78;6.22;;;10.80;99.90;;;;;;5045171;28;20042;-53
2023/03/08 05:43:32;;;;;;;12.43;7.32;;;10.90;99.90;;;;;;5090375;28;20457;-52
2023/03/08 05:46:01;;;;;;;6.50;3.20;;;10.90;99.70;;;;;;5098985;28;20020;-53
2023/03/08 05:48:28;;;;;;;7.28;4.40;;;10.90;99.20;;;;;;5064211;28;20048;-53
2023/03/08 05:50:54;;;;;;;4.10;2.90;;;11.10;99.20;;;;;;5080012;28;20063;-52
2023/03/08 05:53:20;;;;;;;6.40;3.97;;;11.20;98.90;;;;;;5079948;28;20032;-52
2023/03/08 05:55:46;;;;;;;6.38;2.78;;;11.40;99.00;;;;;;5115727;28;20085;-52
2023/03/08 05:58:12;;;;;;;4.05;3.05;;;11.30;98.80;;;;;;5063714;28;20494;-52
2023/03/08 06:00:37;;;;;;;9.13;4.90;;;11.20;98.70;;;;;;5080089;28;20039;-53
2023/03/08 06:03:03;;;;;;;7.38;4.55;;;11.10;98.40;;;;;;5115607;28;20026;-52
2023/03/08 06:05:30;;;;;;;7.15;4.28;;;11.10;98.50;;;;;;5062419;28;20076;-53
2023/03/08 06:07:55;;;;;;;10.50;7.00;;;11.10;98.70;;;;;;5113134;28;20027;-52
2023/03/08 06:10:21;;;;;;;9.75;4.93;;;11.10;98.30;;;;;;5096522;28;20024;-52
2023/03/08 06:12:47;;;;;;;18.08;10.30;;;11.20;98.30;;;;;;5100673;28;20087;-52
2023/03/08 06:15:13;;;;;;;16.13;9.80;;;11.20;98.60;;;;;;5055886;28;20036;-53
2023/03/08 06:17:40;;;;;;;27.98;16.17;;;11.30;98.90;;;;;;5074468;28;20037;-53
2023/03/08 06:20:06;;;;;;;28.88;15.05;;;11.40;98.50;;;;;;5074806;28;20487;-52
2023/03/08 06:22:33;;;;;;;15.63;8.35;;;11.40;98.20;;;;;;5074893;28;20056;-53
2023/03/08 06:24:58;;;;;;;8.65;5.05;;;11.50;98.20;;;;;;5074671;28;20078;-52
2023/03/08 06:27:24;;;;;;;9.23;4.80;;;11.30;98.20;;;;;;5074465;28;20028;-53
2023/03/08 06:29:50;;;;;;;10.65;5.55;;;11.50;98.20;;;;;;5055795;28;20044;-53
2023/03/08 06:32:16;;;;;;;65.55;46.25;;;11.70;98.00;;;;;;5074629;28;20461;-53
2023/03/08 06:34:42;;;;;;;33.88;19.80;;;11.80;97.30;;;;;;5074261;28;20028;-53
2023/03/08 06:37:08;;;;;;;31.65;18.77;;;11.90;97.50;;;;;;5072519;28;20527;-53
2023/03/08 06:39:34;;;;;;;13.65;7.35;;;12.10;97.60;;;;;;5074411;28;20060;-53
2023/03/08 06:42:02;;;;;;;9.02;5.68;;;12.20;97.00;;;;;;5074182;28;20025;-53
2023/03/08 06:44:29;;;;;;;9.05;5.80;;;12.60;98.00;;;;;;5074134;28;20439;-53
2023/03/08 06:46:55;;;;;;;21.02;15.80;;;13.00;98.60;;;;;;5074246;28;20107;-53
2023/03/08 06:49:21;;;;;;;21.92;10.55;;;13.70;99.20;;;;;;5074068;28;20405;-52
2023/03/08 06:51:47;;;;;;;9.50;5.20;;;;;;;;;;5073912;28;20372;-53
2023/03/08 06:54:16;;;;;;;11.45;7.80;;;14.30;99.90;;;;;;5074063;28;20468;-53
2023/03/08 06:56:45;;;;;;;14.90;11.38;;;14.80;98.60;;;;;;5073593;28;20032;-54
2023/03/08 06:59:12;;;;;;;16.80;10.55;;;14.90;98.60;;;;;;5073345;28;20055;-53
2023/03/08 07:01:39;;;;;;;14.50;8.57;;;15.50;99.90;;;;;;5073876;28;20035;-54
2023/03/08 07:04:05;;;;;;;12.32;9.50;;;15.70;98.30;;;;;;5051111;28;20040;-53
2023/03/08 07:06:31;;;;;;;12.38;9.27;;;;;;;;;;5064004;28;20099;-53
2023/03/08 07:08:56;;;;;;;20.40;13.45;;;17.10;99.90;;;;;;5053667;28;20040;-53
2023/03/08 07:11:25;;;;;;;27.05;20.00;;;;;;;;;;5054139;28;20045;-53
2023/03/08 07:13:51;;;;;;;12.57;9.95;;;19.60;96.00;;;;;;5053929;28;20039;-53
2023/03/08 07:16:17;;;;;;;8.65;6.60;;;;;;;;;;5078475;28;20130;-53
2023/03/08 07:18:43;;;;;;;9.82;5.60;;;21.20;93.10;;;;;;5093599;28;20528;-51
2023/03/08 07:21:09;;;;;;;6.88;3.60;;;22.10;91.10;;;;;;5093811;28;20036;-52
2023/03/08 07:23:36;;;;;;;8.70;4.28;;;;;;;;;;5099192;28;20110;-52
2023/03/08 07:26:08;;;;;;;7.20;4.53;;;;;;;;;;5075208;28;20036;-52
2023/03/08 07:28:34;;;;;;;7.78;3.95;;;25.10;98.40;;;;;;5113996;28;20024;-51
2023/03/08 07:31:00;;;;;;;4.43;2.88;;;;;;;;;;5113662;28;20032;-52
2023/03/08 07:33:26;;;;;;;4.18;2.58;;;26.10;91.30;;;;;;5113765;28;20119;-52
2023/03/08 07:35:52;;;;;;;4.78;2.60;;;;;;;;;;5104298;28;20462;-52
2023/03/08 07:38:18;;;;;;;4.28;2.40;;;26.90;78.20;;;;;;5113713;28;20051;-52
2023/03/08 07:40:44;;;;;;;3.10;2.20;;;25.70;75.20;;;;;;5114063;28;20054;-52
2023/03/08 07:43:10;;;;;;;4.00;2.60;;;;;;;;;;5113824;28;20491;-52
2023/03/08 07:45:38;;;;;;;5.90;3.17;;;27.40;75.50;;;;;;5061836;28;20043;-52
2023/03/08 07:48:05;;;;;;;8.77;3.00;;;;;;;;;;5113793;28;20080;-52
2023/03/08 07:50:30;;;;;;;6.85;3.63;;;27.90;73.90;;;;;;5078307;28;20069;-52
2023/03/08 07:52:58;;;;;;;7.15;3.05;;;;;;;;;;5113556;28;20035;-53
2023/03/08 07:55:24;;;;;;;7.22;2.60;;;28.10;73.00;;;;;;5113948;28;20363;-52
2023/03/08 07:57:50;;;;;;;9.15;3.47;;;28.30;73.60;;;;;;5114001;28;20038;-52
2023/03/08 08:00:16;;;;;;;5.65;3.25;;;28.50;72.00;;;;;;5113735;28;20370;-52
2023/03/08 08:02:43;;;;;;;5.13;3.50;;;;;;;;;;5061260;28;20427;-53
2023/03/08 08:05:09;;;;;;;7.28;3.80;;;;;;;;;;5113730;28;20031;-52
2023/03/08 08:07:35;;;;;;;6.47;3.83;;;;;;;;;;5113855;28;20114;-52
2023/03/08 08:10:00;;;;;;;6.63;4.28;;;29.50;69.60;;;;;;5113443;28;20046;-52
2023/03/08 08:12:26;;;;;;;4.78;2.33;;;29.70;69.70;;;;;;5116552;28;20479;-52
2023/03/08 08:14:52;;;;;;;5.03;2.80;;;28.70;67.20;;;;;;5063389;28;20035;-53
2023/03/08 08:17:19;;;;;;;10.45;4.80;;;;;;;;;;5118196;28;20024;-52
2023/03/08 08:19:45;;;;;;;8.85;4.18;;;27.50;68.80;;;;;;5111042;28;20038;-53
2023/03/08 08:22:10;;;;;;;6.78;3.75;;;26.60;70.40;;;;;;5105579;28;20024;-53
2023/03/08 08:24:36;;;;;;;20.17;6.90;;;24.80;70.80;;;;;;5103728;28;20081;-54
2023/03/08 08:27:02;;;;;;;18.55;9.00;;;;;;;;;;5062250;28;20034;-53
2023/03/08 08:29:28;;;;;;;10.82;8.50;;;24.60;73.70;;;;;;5102875;28;20032;-53
2023/03/08 08:31:55;;;;;;;12.88;9.32;;;25.00;73.40;;;;;;5104803;28;20035;-53
2023/03/08 08:34:20;;;;;;;14.55;10.02;;;25.10;74.20;;;;;;5106314;28;20463;-53
2023/03/08 08:36:46;;;;;;;16.77;10.30;;;;;;;;;;5104108;28;20034;-52
2023/03/08 08:39:13;;;;;;;16.58;9.60;;;;;;;;;;5105720;28;20035;-53
2023/03/08 08:41:39;;;;;;;13.25;9.82;;;;;;;;;;5104130;28;20071;-54
2023/03/08 08:44:05;;;;;;;15.50;9.90;;;;;;;;;;5106314;28;20031;-52
2023/03/08 08:46:33;;;;;;;8.20;5.15;;;26.40;82.30;;;;;;5105433;28;20107;-53
2023/03/08 08:48:59;;;;;;;7.90;5.38;;;26.30;73.00;;;;;;5103934;28;20032;-53
2023/03/08 08:51:25;;;;;;;10.40;6.03;;;;;;;;;;5104761;28;20118;-52
2023/03/08 08:53:52;;;;;;;9.63;4.63;;;27.70;70.80;;;;;;5117050;28;20474;-52
2023/03/08 08:56:19;;;;;;;9.73;4.50;;;;;;;;;;5116900;28;20031;-52
2023/03/08 08:58:46;;;;;;;7.90;3.38;;;28.70;70.30;;;;;;5047539;28;20436;-52
2023/03/08 09:01:18;;;;;;;4.53;2.83;;;28.00;68.90;;;;;;5116552;28;20497;-53
2023/03/08 09:03:45;;;;;;;6.25;3.60;;;27.40;68.20;;;;;;5113780;28;20055;-53
2023/03/08 09:06:11;;;;;;;5.40;3.63;;;27.70;68.90;;;;;;5116497;28;20474;-53
2023/03/08 09:08:37;;;;;;;9.25;4.13;;;;;;;;;;5116764;28;20039;-53
2023/03/08 09:11:04;;;;;;;4.35;3.22;;;;;;;;;;5116679;28;20040;-53
2023/03/08 09:13:30;;;;;;;5.47;3.33;;;;;;;;;;5081015;28;20482;-53
2023/03/08 09:15:57;;;;;;;6.47;3.65;;;;;;;;;;5116175;28;20154;-53
2023/03/08 09:18:22;;;;;;;4.60;2.58;;;26.60;70.40;;;;;;5116408;28;20459;-53
2023/03/08 09:20:48;;;;;;;3.80;2.90;;;27.40;69.80;;;;;;5116420;28;20028;-53
2023/03/08 09:23:13;;;;;;;7.60;3.60;;;27.00;70.60;;;;;;5115988;28;20051;-53
2023/03/08 09:25:40;;;;;;;5.93;3.38;;;;;;;;;;5115247;28;20027;-53
2023/03/08 09:28:05;;;;;;;4.65;2.95;;;28.10;68.30;;;;;;5110035;28;20051;-53
2023/03/08 09:30:31;;;;;;;5.13;2.45;;;27.70;69.70;;;;;;5096073;28;20479;-53
2023/03/08 09:32:58;;;;;;;4.20;2.38;;;;;;;;;;5096108;28;20028;-53
2023/03/08 09:35:25;;;;;;;2.58;1.90;;;;;;;;;;5095818;28;20389;-53
2023/03/08 09:37:51;;;;;;;3.65;2.38;;;;;;;;;;5097213;28;20036;-53
2023/03/08 09:40:22;;;;;;;5.15;1.92;;;28.40;66.20;;;;;;5116025;28;20024;-53
2023/03/08 09:42:48;;;;;;;3.72;2.08;;;27.90;66.70;;;;;;5092136;28;20036;-53
2023/03/08 09:45:17;;;;;;;23.67;4.38;;;26.90;68.60;;;;;;5109460;28;20372;-53
2023/03/08 09:48:06;;;;;;;2.88;1.90;;;27.40;68.20;;;;;;5095438;28;20111;-53
2023/03/08 09:51:01;;;;;;;4.40;2.47;;;25.80;68.30;;;;;;5095664;28;20040;-53
2023/03/08 09:53:39;;;;;;;3.88;2.00;;;25.00;67.50;;;;;;5093438;28;20182;-53
2023/03/08 09:56:14;;;;;;;6.43;2.55;;;25.40;70.00;;;;;;5095627;28;20035;-54
2023/03/08 09:58:54;;;;;;;3.80;2.42;;;26.20;70.70;;;;;;5095364;28;20024;-53
2023/03/08 10:01:32;;;;;;;6.28;2.10;;;25.80;68.60;;;;;;5095265;28;20027;-53
2023/03/08 10:03:58;;;;;;;5.30;2.17;;;26.20;68.60;;;;;;5095644;28;20039;-53
2023/03/08 10:06:40;;;;;;;6.47;2.60;;;24.70;69.60;;;;;;5095259;28;20468;-53
2023/03/08 10:09:18;;;;;;;12.15;3.72;;;24.60;70.70;;;;;;5095230;28;20028;-54
2023/03/08 10:11:50;;;;;;;4.95;2.15;;;25.30;72.10;;;;;;5093174;28;20051;-53
2023/03/08 10:14:33;;;;;;;3.90;2.15;;;25.50;69.80;;;;;;5094875;28;20183;-53
2023/03/08 10:17:04;;;;;;;3.92;2.30;;;25.50;70.20;;;;;;5094994;28;20390;-53
2023/03/08 10:19:36;;;;;;;3.60;2.30;;;25.50;69.10;;;;;;5094954;28;20016;-53
2023/03/08 10:22:22;;;;;;;;;;;24.90;69.80;;;;;;5095345;28;20020;-53
2023/03/08 10:24:53;;;;;;;4.90;2.50;;;24.90;69.30;;;;;;5094108;28;19908;-53
2023/03/08 10:27:22;;;;;;;5.72;2.80;;;25.30;69.70;;;;;;5093008;28;20039;-53
2023/03/08 10:29:49;;;;;;;3.92;2.28;;;25.90;68.60;;;;;;5094359;28;20383;-53
2023/03/08 10:32:15;;;;;;;4.35;2.40;;;24.20;69.00;;;;;;5094615;28;20108;-53
2023/03/08 10:34:41;;;;;;;4.57;2.38;;;24.40;69.50;;;;;;5094634;28;20473;-53
2023/03/08 10:37:08;;;;;;;5.32;2.65;;;24.20;70.20;;;;;;5094901;28;20495;-53
2023/03/08 10:39:51;;;;;;;6.47;3.30;;;23.50;71.40;;;;;;5094715;28;20375;-53
2023/03/08 10:42:18;;;;;;;4.68;2.08;;;22.80;73.20;;;;;;5094482;28;20476;-53
2023/03/08 10:44:51;;;;;;;5.97;2.50;;;22.50;90.10;;;;;;5094574;28;20362;-54
2023/03/08 10:47:28;;;;;;;4.97;2.60;;;21.90;73.30;;;;;;5094902;28;20036;-53
2023/03/08 10:50:17;;;;;;;10.43;3.58;;;22.90;73.10;;;;;;5094624;28;20031;-53
2023/03/08 10:52:44;;;;;;;6.25;2.63;;;23.30;73.40;;;;;;5094404;28;20028;-52
2023/03/08 10:55:16;;;;;;;10.15;3.00;;;24.20;72.60;;;;;;5094200;28;20466;-53
2023/03/08 10:57:47;;;;;;;;;;;23.90;72.20;;;;;;5094607;28;20067;-53
2023/03/08 11:00:19;;;;;;;4.13;2.63;;;;;;;;;;5094623;28;19904;-53
2023/03/08 11:02:46;;;;;;;5.03;2.63;;;;;;;;;;5092302;28;20039;-53
2023/03/08 11:05:27;;;;;;;5.22;2.72;;;24.80;98.50;;;;;;5094063;28;20028;-53
2023/03/08 11:07:55;;;;;;;3.78;2.45;;;25.10;72.10;;;;;;5043713;28;20119;-53
2023/03/08 11:10:23;;;;;;;5.97;2.25;;;25.10;70.50;;;;;;5093957;28;20451;-53
2023/03/08 11:13:00;;;;;;;6.70;3.00;;;;;;;;;;5072337;28;20036;-53
2023/03/08 11:15:30;;;;;;;7.70;3.28;;;25.40;86.70;;;;;;5093862;28;20044;-53
2023/03/08 11:18:15;;;;;;;5.75;2.70;;;25.10;70.30;;;;;;5094021;28;20137;-53
2023/03/08 11:20:54;;;;;;;7.38;3.13;;;25.10;70.30;;;;;;5094189;28;20032;-53
2023/03/08 11:23:29;;;;;;;5.28;3.10;;;;;;;;;;5093767;28;20051;-53
2023/03/08 11:26:33;;;;;;;9.88;3.72;;;23.80;71.20;;;;;;5091754;28;20099;-53
2023/03/08 11:29:11;;;;;;;6.75;3.78;;;22.90;72.10;;;;;;5031412;28;20124;-52
2023/03/08 11:31:51;;;;;;;5.30;2.50;;;22.70;73.30;;;;;;5031261;28;20053;-53
2023/03/08 11:34:17;;;;;;;6.65;3.30;;;;;;;;;;5031032;28;20036;-53
2023/03/08 11:37:03;;;;;;;5.55;2.80;;;22.70;86.50;;;;;;5031257;28;20420;-53
2023/03/08 11:39:38;;;;;;;5.03;2.75;;;22.70;73.90;;;;;;5020680;28;20037;-53
2023/03/08 11:42:03;;;;;;;5.95;3.05;;;22.40;73.50;;;;;;5031159;28;20025;-52
2023/03/08 11:44:41;;;;;;;14.25;4.82;;;22.30;75.10;;;;;;5031019;28;20124;-53
2023/03/08 11:47:32;;;;;;;8.13;3.38;;;22.20;75.40;;;;;;5014245;28;20068;-53
2023/03/08 11:50:04;;;;;;;4.05;2.47;;;;;;;;;;5031158;28;20556;-53
2023/03/08 11:52:36;;;;;;;8.57;2.60;;;21.40;87.70;;;;;;5030991;28;20057;-53
2023/03/08 11:55:36;;;;;;;9.25;3.15;;;21.10;75.00;;;;;;4998157;28;20037;-53
2023/03/08 11:58:21;;;;;;;4.68;2.40;;;21.30;74.70;;;;;;5031008;28;20145;-53
2023/03/08 12:00:51;;;;;;;5.10;2.63;;;21.30;73.40;;;;;;5031136;28;20029;-53
2023/03/08 12:03:29;;;;;;;8.57;2.85;;;21.40;73.10;;;;;;5031795;28;20036;-53
2023/03/08 12:05:57;;;;;;;5.70;2.50;;;;;;;;;;5093523;28;20024;-53
2023/03/08 12:08:38;;;;;;;4.40;2.78;;;20.40;97.10;;;;;;5093046;28;20031;-53
2023/03/08 12:11:19;;;;;;;4.35;2.88;;;;;;;;;;5093316;28;20032;-52
2023/03/08 12:13:56;;;;;;;4.67;2.80;;;19.70;80.90;;;;;;5093428;28;20043;-53
2023/03/08 12:16:34;;;;;;;6.68;3.17;;;19.80;77.30;;;;;;5093170;28;20048;-53
2023/03/08 12:19:18;;;;;;;6.20;2.80;;;19.70;78.60;;;;;;5093139;28;20031;-52
2023/03/08 12:21:59;;;;;;;7.60;2.92;;;19.60;78.40;;;;;;5093167;28;20062;-53
2023/03/08 12:24:43;;;;;;;5.38;2.60;;;19.50;78.50;;;;;;5093022;28;20058;-53
2023/03/08 12:27:27;;;;;;;5.50;2.95;;;19.30;79.60;;;;;;5092922;28;20383;-52
2023/03/08 12:30:31;;;;;;;5.97;4.10;;;19.30;78.10;;;;;;5092828;28;20028;-52
2023/03/08 12:32:59;;;;;;;5.78;3.60;;;;;;;;;;5089878;28;20159;-52
2023/03/08 12:35:28;;;;;;;8.93;5.85;;;19.00;92.40;;;;;;5106929;28;20454;-52
2023/03/08 12:38:18;;;;;;;15.63;9.38;;;19.00;79.80;;;;;;5017248;28;20052;-53
2023/03/08 12:40:50;;;;;;;12.88;4.38;;;18.90;80.40;;;;;;5050390;28;20588;-52
2023/03/08 12:43:18;;;;;;;8.68;4.97;;;18.80;79.50;;;;;;5045385;28;20499;-52
2023/03/08 12:45:46;;;;;;;6.93;4.05;;;18.80;80.30;;;;;;5042955;28;20029;-53
2023/03/08 12:48:53;;;;;;;5.18;2.95;;;18.90;81.80;;;;;;5023731;28;20037;-53
2023/03/08 12:51:33;;;;;;;7.55;2.85;;;18.90;80.00;;;;;;4991151;28;20062;-52
2023/03/08 12:54:02;;;;;;;13.15;3.40;;;18.80;79.40;;;;;;4974726;28;20046;-52
2023/03/08 12:56:32;;;;;;;5.18;3.40;;;18.80;81.10;;;;;;4991231;28;20513;-53
2023/03/08 12:59:01;;;;;;;5.95;3.63;;;;;;;;;;4989558;28;20081;-52
2023/03/08 13:01:40;;;;;;;6.28;4.13;;;18.50;90.00;;;;;;4976257;28;20038;-53
2023/03/08 13:04:26;;;;;;;5.80;3.03;;;18.50;82.40;;;;;;4978475;28;20043;-52
2023/03/08 13:06:51;;;;;;;5.38;2.88;;;18.40;82.80;;;;;;4880131;29;20064;-52
2023/03/08 13:09:28;;;;;;;4.65;2.97;;;18.50;81.50;;;;;;4876880;29;20540;-52
2023/03/08 13:12:14;;;;;;;5.05;3.00;;;18.50;82.10;;;;;;4898609;29;20150;-52
2023/03/08 13:15:00;;;;;;;5.90;3.55;;;18.40;83.80;;;;;;4898683;29;20267;-52